Time;durP1;ratioP1;P1;durP2;ratioP2;P2;SDS_P1;SDS_P2;PMS_P1;PMS_P2;Temp;Humidity;BMP_temperature;BMP_pressure;BME280_temperature;BME280_humidity;BME280_pressure;Samples;Min_cycle;Max_cycle;Signal;HPM_P1;HPM_P2
2023/10/22 00:02:21;;;;;;;1.77;1.00;;;;;;;;;;5122780;27;20052;-56
2023/10/22 00:04:48;;;;;;;2.78;0.95;;;;;;;;;;5127703;27;20058;-58
2023/10/22 00:07:14;;;;;;;1.65;0.82;;;;;;;;;;5145179;27;20063;-56
2023/10/22 00:09:41;;;;;;;5.15;1.25;;;;;;;;;;5138282;27;20055;-57
2023/10/22 00:12:07;;;;;;;2.75;0.90;;;;;;;;;;5135289;27;20054;-55
2023/10/22 00:14:34;;;;;;;1.88;0.90;;;;;;;;;;5138209;27;20421;-58
2023/10/22 00:17:00;;;;;;;5.90;1.35;;;;;;;;;;5142532;27;20509;-57
2023/10/22 00:19:27;;;;;;;2.00;1.10;;;;;;;;;;5143593;27;20047;-57
2023/10/22 00:21:54;;;;;;;2.55;1.13;;;;;;;;;;5127908;27;20860;-58
2023/10/22 00:24:20;;;;;;;1.58;1.02;;;;;;;;;;5131746;27;20484;-58
2023/10/22 00:26:47;;;;;;;1.73;1.00;;;;;;;;;;5140402;27;20494;-56
2023/10/22 00:29:13;;;;;;;2.63;1.10;;;;;;;;;;5134059;27;20082;-56
2023/10/22 00:31:39;;;;;;;3.88;1.60;;;;;;;;;;5142486;27;20648;-57
2023/10/22 00:34:06;;;;;;;4.05;1.40;;;;;;;;;;5142612;27;20059;-57
2023/10/22 00:36:33;;;;;;;1.92;1.38;;;;;;;;;;5145721;27;20066;-56
2023/10/22 00:38:59;;;;;;;5.10;1.60;;;;;;;;;;5147600;27;20062;-57
2023/10/22 00:41:25;;;;;;;2.70;1.40;;;;;;;;;;5144783;27;20063;-56
2023/10/22 00:43:52;;;;;;;3.03;1.30;;;;;;;;;;5141478;27;20050;-57
2023/10/22 00:46:22;;;;;;;5.85;1.73;;;;;;;;;;5144803;27;20116;-56
2023/10/22 00:48:49;;;;;;;3.00;1.23;;;;;;;;;;5145255;27;20051;-55
2023/10/22 00:51:16;;;;;;;4.75;1.42;;;;;;;;;;5143192;27;20051;-57
2023/10/22 00:53:43;;;;;;;2.22;1.02;;;;;;;;;;5134608;27;20489;-57
2023/10/22 00:56:10;;;;;;;2.88;1.35;;;;;;;;;;5135372;27;20054;-57
2023/10/22 00:58:36;;;;;;;3.47;1.30;;;;;;;;;;5143156;27;20044;-56
2023/10/22 01:01:06;;;;;;;4.07;1.10;;;;;;;;;;5145557;27;20051;-57
2023/10/22 01:03:34;;;;;;;4.30;1.63;;;;;;;;;;5127734;27;20075;-58
2023/10/22 01:06:02;;;;;;;5.20;1.35;;;;;;;;;;5125949;27;20051;-58
2023/10/22 01:08:28;;;;;;;2.80;1.58;;;;;;;;;;5112275;27;20591;-57
2023/10/22 01:11:03;;;;;;;5.15;2.05;;;;;;;;;;5146664;27;20043;-58
2023/10/22 01:13:29;;;;;;;4.40;1.50;;;;;;;;;;5134227;27;20164;-57
2023/10/22 01:15:56;;;;;;;5.10;1.33;;;;;;;;;;5135482;27;20055;-59
2023/10/22 01:18:22;;;;;;;3.90;1.40;;;;;;;;;;5145236;27;20450;-58
2023/10/22 01:20:49;;;;;;;3.53;1.50;;;;;;;;;;5144819;27;20332;-57
2023/10/22 01:23:16;;;;;;;2.90;1.27;;;;;;;;;;5132505;27;20051;-57
2023/10/22 01:25:42;;;;;;;3.75;1.30;;;;;;;;;;5138845;27;20134;-58
2023/10/22 01:28:09;;;;;;;2.67;1.30;;;;;;;;;;5125731;27;20109;-58
2023/10/22 01:30:35;;;;;;;2.08;1.05;;;;;;;;;;5124842;27;20055;-57
2023/10/22 01:33:04;;;;;;;4.20;1.13;;;;;;;;;;5128993;27;20055;-59
2023/10/22 01:35:31;;;;;;;1.25;1.15;;;;;;;;;;5129365;27;20055;-58
2023/10/22 01:37:58;;;;;;;3.88;1.25;;;;;;;;;;5144592;27;20047;-57
2023/10/22 01:40:24;;;;;;;1.33;1.10;;;;;;;;;;5145280;27;20055;-55
2023/10/22 01:42:51;;;;;;;3.13;1.38;;;;;;;;;;5145067;27;20509;-58
2023/10/22 01:45:19;;;;;;;3.13;1.10;;;;;;;;;;5135938;27;20140;-57
2023/10/22 01:47:45;;;;;;;2.25;1.35;;;;;;;;;;5131871;27;20139;-58
2023/10/22 01:50:12;;;;;;;3.70;1.60;;;;;;;;;;5134108;27;20909;-58
2023/10/22 01:52:39;;;;;;;2.38;1.20;;;;;;;;;;5145131;27;20112;-58
2023/10/22 01:55:06;;;;;;;1.50;1.15;;;;;;;;;;5133542;27;20112;-57
2023/10/22 01:57:35;;;;;;;3.20;1.38;;;;;;;;;;5128545;27;20051;-58
2023/10/22 02:00:03;;;;;;;1.02;0.98;;;;;;;;;;5132837;27;20783;-57
2023/10/22 02:02:29;;;;;;;3.47;1.38;;;;;;;;;;5137836;27;20055;-58
2023/10/22 02:04:56;;;;;;;3.20;1.48;;;;;;;;;;5125000;27;20567;-55
2023/10/22 02:07:22;;;;;;;1.92;1.25;;;;;;;;;;5125110;27;20537;-58
2023/10/22 02:09:49;;;;;;;2.80;1.25;;;;;;;;;;5132493;27;20048;-57
2023/10/22 02:12:16;;;;;;;2.13;1.58;;;;;;;;;;5125157;27;20118;-57
2023/10/22 02:14:42;;;;;;;1.25;1.00;;;;;;;;;;5141011;27;20564;-58
2023/10/22 02:17:09;;;;;;;2.08;1.17;;;;;;;;;;5124744;27;20051;-58
2023/10/22 02:19:35;;;;;;;1.25;1.05;;;;;;;;;;5144487;27;20055;-59
2023/10/22 02:22:02;;;;;;;1.80;1.20;;;;;;;;;;5131402;27;20524;-58
2023/10/22 02:24:29;;;;;;;1.10;1.00;;;;;;;;;;5143009;27;20556;-57
2023/10/22 02:26:55;;;;;;;1.92;1.40;;;;;;;;;;5147696;27;20055;-58
2023/10/22 02:29:22;;;;;;;3.47;1.15;;;;;;;;;;5127029;27;20055;-56
2023/10/22 02:31:48;;;;;;;2.83;1.10;;;;;;;;;;5140110;27;20729;-58
2023/10/22 02:34:15;;;;;;;3.25;1.00;;;;;;;;;;5142546;27;20055;-58
2023/10/22 02:36:41;;;;;;;1.90;1.23;;;;;;;;;;5144263;27;20047;-57
2023/10/22 02:39:08;;;;;;;3.10;1.10;;;;;;;;;;5131520;27;20055;-57
2023/10/22 02:41:35;;;;;;;1.00;0.90;;;;;;;;;;5130189;27;20063;-58
2023/10/22 02:44:01;;;;;;;1.58;0.98;;;;;;;;;;5136763;27;20117;-59
2023/10/22 02:46:27;;;;;;;0.93;0.93;;;;;;;;;;5143911;27;20081;-56
2023/10/22 02:48:54;;;;;;;2.25;1.42;;;;;;;;;;5131368;27;20043;-56
2023/10/22 02:51:22;;;;;;;1.20;1.05;;;;;;;;;;5135568;27;20100;-58
2023/10/22 02:53:48;;;;;;;1.30;1.00;;;;;;;;;;5138695;27;20055;-58
2023/10/22 02:56:15;;;;;;;1.85;0.95;;;;;;;;;;5135273;27;20528;-56
2023/10/22 02:58:42;;;;;;;0.70;0.70;;;;;;;;;;5143237;27;20046;-56
2023/10/22 03:01:09;;;;;;;2.55;0.98;;;;;;;;;;5129591;27;20219;-55
2023/10/22 03:03:39;;;;;;;4.72;0.80;;;;;;;;;;5131503;27;20614;-57
2023/10/22 03:06:07;;;;;;;1.15;1.05;;;;;;;;;;5130173;27;20051;-58
2023/10/22 03:08:34;;;;;;;1.38;0.95;;;;;;;;;;5130249;27;20059;-56
2023/10/22 03:11:01;;;;;;;0.80;0.80;;;;;;;;;;5124265;27;20051;-57
2023/10/22 03:13:27;;;;;;;1.33;0.63;;;;;;;;;;5138892;27;20530;-57
2023/10/22 03:15:54;;;;;;;1.23;0.80;;;;;;;;;;5127669;27;20051;-58
2023/10/22 03:18:20;;;;;;;0.95;0.80;;;;;;;;;;5132153;27;20067;-59
2023/10/22 03:20:47;;;;;;;0.98;0.80;;;;;;;;;;5123636;27;20091;-58
2023/10/22 03:23:13;;;;;;;1.52;1.10;;;;;;;;;;5140569;27;20609;-57
2023/10/22 03:25:40;;;;;;;5.75;1.27;;;;;;;;;;5139970;27;20078;-58
2023/10/22 03:28:06;;;;;;;0.98;0.88;;;;;;;;;;5133682;27;20468;-57
2023/10/22 03:30:37;;;;;;;2.95;1.25;;;;;;;;;;5141646;27;20043;-56
2023/10/22 03:33:04;;;;;;;3.35;1.45;;;;;;;;;;5123621;27;20087;-57
2023/10/22 03:35:31;;;;;;;3.95;1.60;;;;;;;;;;5116589;27;20051;-56
2023/10/22 03:38:00;;;;;;;8.40;1.83;;;;;;;;;;5135019;27;20501;-56
2023/10/22 03:40:27;;;;;;;1.48;0.95;;;;;;;;;;5123231;27;20724;-57
2023/10/22 03:42:54;;;;;;;2.05;1.40;;;;;;;;;;5134882;27;20048;-56
2023/10/22 03:45:20;;;;;;;2.47;1.20;;;;;;;;;;5129075;27;20458;-56
2023/10/22 03:47:47;;;;;;;1.40;1.30;;;;;;;;;;5126599;27;20083;-57
2023/10/22 03:50:14;;;;;;;2.08;1.30;;;;;;;;;;5125811;27;20417;-56
2023/10/22 03:52:40;;;;;;;4.05;1.85;;;;;;;;;;5144142;27;20059;-58
2023/10/22 03:55:09;;;;;;;2.15;1.95;;;;;;;;;;5134069;27;20079;-58
2023/10/22 03:57:36;;;;;;;5.47;2.03;;;;;;;;;;5123419;27;20418;-58
2023/10/22 04:00:07;;;;;;;3.58;2.60;;;;;;;;;;5128893;27;20071;-57
2023/10/22 04:02:34;;;;;;;2.75;2.15;;;;;;;;;;5142521;27;20078;-57
2023/10/22 04:05:00;;;;;;;3.42;2.53;;;;;;;;;;5143336;27;20051;-57
2023/10/22 04:07:27;;;;;;;7.88;3.13;;;;;;;;;;5125976;27;20064;-54
2023/10/22 04:09:53;;;;;;;4.20;2.92;;;;;;;;;;5130536;27;20090;-57
2023/10/22 04:12:22;;;;;;;5.28;2.88;;;;;;;;;;5126342;27;20164;-58
2023/10/22 04:14:48;;;;;;;5.68;3.42;;;;;;;;;;5109170;27;20055;-56
2023/10/22 04:17:15;;;;;;;5.85;3.25;;;;;;;;;;5134846;27;20101;-56
2023/10/22 04:19:41;;;;;;;6.50;3.80;;;;;;;;;;5137385;27;20062;-57
2023/10/22 04:22:08;;;;;;;10.40;3.22;;;;;;;;;;5135839;27;20387;-57
2023/10/22 04:24:34;;;;;;;6.20;3.78;;;;;;;;;;5143887;27;20051;-58
2023/10/22 04:27:01;;;;;;;9.77;3.85;;;;;;;;;;5146034;27;20531;-57
2023/10/22 04:29:27;;;;;;;9.18;3.80;;;;;;;;;;5146554;27;20130;-56
2023/10/22 04:31:53;;;;;;;6.57;3.38;;;;;;;;;;5138562;27;20554;-57
2023/10/22 04:34:20;;;;;;;8.88;3.92;;;;;;;;;;5129286;27;20063;-55
2023/10/22 04:36:46;;;;;;;5.50;3.20;;;;;;;;;;5126258;27;20150;-58
2023/10/22 04:39:13;;;;;;;4.95;2.67;;;;;;;;;;5138603;27;20135;-55
2023/10/22 04:41:39;;;;;;;7.55;3.22;;;;;;;;;;5130564;27;20047;-56
2023/10/22 04:44:06;;;;;;;5.85;2.90;;;;;;;;;;5137440;27;20054;-55
2023/10/22 04:46:32;;;;;;;5.32;2.83;;;;;;;;;;5126024;27;20056;-57
2023/10/22 04:48:59;;;;;;;5.28;2.63;;;;;;;;;;5127706;27;20047;-54
2023/10/22 04:51:25;;;;;;;7.20;2.55;;;;;;;;;;5137603;27;20057;-57
2023/10/22 04:53:52;;;;;;;7.22;2.53;;;;;;;;;;5146785;27;20051;-57
2023/10/22 04:56:18;;;;;;;4.13;2.28;;;;;;;;;;5146738;27;20255;-56
2023/10/22 04:58:45;;;;;;;5.97;2.40;;;;;;;;;;5128065;27;20055;-58
2023/10/22 05:01:11;;;;;;;11.57;2.47;;;;;;;;;;5145947;27;20054;-58
2023/10/22 05:03:38;;;;;;;5.95;2.20;;;;;;;;;;5145495;27;20066;-56
2023/10/22 05:06:06;;;;;;;5.35;1.90;;;;;;;;;;5144995;27;20058;-55
2023/10/22 05:08:37;;;;;;;3.88;2.10;;;;;;;;;;5146325;27;20051;-58
2023/10/22 05:11:05;;;;;;;5.25;2.25;;;;;;;;;;5126361;27;20055;-58
2023/10/22 05:13:32;;;;;;;9.63;2.75;;;;;;;;;;5136023;27;20519;-58
2023/10/22 05:15:58;;;;;;;5.50;1.90;;;;;;;;;;5137122;27;20059;-59
2023/10/22 05:18:28;;;;;;;4.15;2.13;;;;;;;;;;5146606;27;20056;-57
2023/10/22 05:21:05;;;;;;;5.38;2.40;;;;;;;;;;5124028;27;20560;-58
2023/10/22 05:23:33;;;;;;;5.35;2.85;;;;;;;;;;5134800;27;20425;-57
2023/10/22 05:26:03;;;;;;;8.85;2.67;;;;;;;;;;5136388;27;20105;-58
2023/10/22 05:28:30;;;;;;;4.03;2.58;;;;;;;;;;5124959;27;20137;-57
2023/10/22 05:30:56;;;;;;;9.23;3.08;;;;;;;;;;5144011;27;20112;-57
2023/10/22 05:33:23;;;;;;;11.05;2.72;;;;;;;;;;5134171;27;20128;-56
2023/10/22 05:35:49;;;;;;;7.13;3.20;;;;;;;;;;5129115;27;20122;-57
2023/10/22 05:38:16;;;;;;;8.25;3.30;;;;;;;;;;5130393;27;20055;-57
2023/10/22 05:40:42;;;;;;;7.30;2.92;;;;;;;;;;5146664;27;20051;-57
2023/10/22 05:43:09;;;;;;;9.13;3.20;;;;;;;;;;5145607;27;20631;-57
2023/10/22 05:45:35;;;;;;;4.65;2.80;;;;;;;;;;5136220;27;20563;-57
2023/10/22 05:48:02;;;;;;;6.55;2.92;;;;;;;;;;5130987;27;20059;-58
2023/10/22 05:50:28;;;;;;;4.00;2.70;;;;;;;;;;5140062;27;20051;-55
2023/10/22 05:52:55;;;;;;;6.55;2.90;;;;;;;;;;5146152;27;20055;-58
2023/10/22 05:55:21;;;;;;;10.88;2.92;;;;;;;;;;5138119;27;20130;-57
2023/10/22 05:57:47;;;;;;;5.63;3.25;;;;;;;;;;5133172;27;20108;-56
2023/10/22 06:00:14;;;;;;;9.00;3.15;;;;;;;;;;5141646;27;20410;-56
2023/10/22 06:02:41;;;;;;;7.68;3.97;;;;;;;;;;5136502;27;20066;-57
2023/10/22 06:05:08;;;;;;;7.78;2.95;;;;;;;;;;5127110;27;20048;-55
2023/10/22 06:07:50;;;;;;;10.30;3.28;;;;;;;;;;5130177;27;20165;-59
2023/10/22 06:10:16;;;;;;;4.50;2.75;;;;;;;;;;5145197;27;20047;-55
2023/10/22 06:12:43;;;;;;;8.15;3.10;;;;;;;;;;5143335;27;20118;-56
2023/10/22 06:15:09;;;;;;;5.13;2.60;;;;;;;;;;5112956;27;20054;-59
2023/10/22 06:17:36;;;;;;;8.38;2.75;;;;;;;;;;5139563;27;20066;-58
2023/10/22 06:20:05;;;;;;;3.75;1.90;;;;;;;;;;5106182;27;20450;-56
2023/10/22 06:22:31;;;;;;;3.47;2.28;;;;;;;;;;5085590;28;20048;-57
2023/10/22 06:24:57;;;;;;;3.45;2.50;;;;;;;;;;5104928;28;20512;-57
2023/10/22 06:27:24;;;;;;;4.50;2.30;;;;;;;;;;5086266;28;20617;-55
2023/10/22 06:29:53;;;;;;;6.20;2.33;;;;;;;;;;5083082;28;20055;-57
2023/10/22 06:32:20;;;;;;;6.13;2.42;;;;;;;;;;5091284;28;20067;-57
2023/10/22 06:34:47;;;;;;;4.15;2.50;;;;;;;;;;5103619;27;20059;-57
2023/10/22 06:37:13;;;;;;;5.00;2.15;;;;;;;;;;5092813;28;20065;-57
2023/10/22 06:39:39;;;;;;;6.88;2.38;;;;;;;;;;5100883;28;20048;-56
2023/10/22 06:42:06;;;;;;;6.25;2.35;;;;;;;;;;5096597;28;20152;-57
2023/10/22 06:44:33;;;;;;;5.45;2.30;;;;;;;;;;5098745;28;20133;-57
2023/10/22 06:46:59;;;;;;;6.78;2.20;;;;;;;;;;5084556;28;20511;-57
2023/10/22 06:49:26;;;;;;;4.75;1.95;;;;;;;;;;5095599;28;20052;-55
2023/10/22 06:51:52;;;;;;;5.88;2.50;;;;;;;;;;5093348;28;20056;-57
2023/10/22 06:54:21;;;;;;;5.07;2.55;;;;;;;;;;5097487;28;20133;-58
2023/10/22 06:56:47;;;;;;;4.10;2.80;;;;;;;;;;5089788;28;20059;-57
2023/10/22 06:59:15;;;;;;;7.88;2.92;;;;;;;;;;5084849;28;20609;-57
2023/10/22 07:01:41;;;;;;;9.43;3.85;;;;;;;;;;5083759;28;20055;-57
2023/10/22 07:04:07;;;;;;;5.53;2.80;;;;;;;;;;5093030;28;20056;-54
2023/10/22 07:06:34;;;;;;;6.68;3.88;;;;;;;;;;5088261;28;20056;-55
2023/10/22 07:09:01;;;;;;;7.00;4.38;;;;;;;;;;5082736;28;20979;-58
2023/10/22 07:11:33;;;;;;;8.95;5.82;;;;;;;;;;5083615;28;20056;-57
2023/10/22 07:13:59;;;;;;;7.80;5.15;;;;;;;;;;5101810;28;20060;-58
2023/10/22 07:16:26;;;;;;;7.97;5.28;;;;;;;;;;5101523;28;20318;-58
2023/10/22 07:18:52;;;;;;;7.15;5.00;;;;;;;;;;5103747;27;20059;-58
2023/10/22 07:21:19;;;;;;;9.75;5.63;;;;;;;;;;5122479;27;20048;-55
2023/10/22 07:23:46;;;;;;;10.85;6.82;;;;;;;;;;5139317;27;20124;-56
2023/10/22 07:26:12;;;;;;;9.98;6.10;;;;;;;;;;5139518;27;20052;-57
2023/10/22 07:28:41;;;;;;;9.52;6.30;;;;;;;;;;5132296;27;20043;-57
2023/10/22 07:31:09;;;;;;;14.27;6.70;;;;;;;;;;5129019;27;20139;-56
2023/10/22 07:33:35;;;;;;;13.10;7.15;;;;;;;;;;5125897;27;20047;-56
2023/10/22 07:36:07;;;;;;;11.00;7.03;;;;;;;;;;5125178;27;20052;-55
2023/10/22 07:38:34;;;;;;;15.23;7.07;;;;;;;;;;5122660;27;20116;-56
2023/10/22 07:41:00;;;;;;;9.25;5.85;;;;;;;;;;5123382;27;20512;-57
2023/10/22 07:43:27;;;;;;;11.77;6.53;;;;;;;;;;5122699;27;20055;-58
2023/10/22 07:46:01;;;;;;;11.80;6.43;;;;;;;;;;5133641;27;20051;-58
2023/10/22 07:48:28;;;;;;;11.13;5.97;;;;;;;;;;5139456;27;20402;-58
2023/10/22 07:51:06;;;;;;;7.97;5.60;;;;;;;;;;5123962;27;20056;-56
2023/10/22 07:53:33;;;;;;;7.53;5.68;;;;;;;;;;5136690;27;20052;-58
2023/10/22 07:55:59;;;;;;;13.52;6.07;;;;;;;;;;5129679;27;20200;-57
2023/10/22 07:58:25;;;;;;;10.20;5.40;;;;;;;;;;5134346;27;20494;-60
2023/10/22 08:00:52;;;;;;;7.50;5.32;;;;;;;;;;5123778;27;20047;-59
2023/10/22 08:03:18;;;;;;;8.05;5.15;;;;;;;;;;5118849;27;20047;-57
2023/10/22 08:05:45;;;;;;;11.15;5.30;;;;;;;;;;5132710;27;20052;-59
2023/10/22 08:08:12;;;;;;;10.63;5.22;;;;;;;;;;5132496;27;20051;-58
2023/10/22 08:10:38;;;;;;;7.82;4.65;;;;;;;;;;5133315;27;20051;-57
2023/10/22 08:13:04;;;;;;;7.78;4.88;;;;;;;;;;5126342;27;20088;-57
2023/10/22 08:15:31;;;;;;;7.68;4.70;;;;;;;;;;5140419;27;20078;-58
2023/10/22 08:17:57;;;;;;;8.68;4.25;;;;;;;;;;5131218;27;20657;-58
2023/10/22 08:20:24;;;;;;;12.70;5.18;;;;;;;;;;5124121;27;20060;-58
2023/10/22 08:22:50;;;;;;;9.77;4.60;;;;;;;;;;5128659;27;20059;-58
2023/10/22 08:25:17;;;;;;;7.10;4.20;;;;;;;;;;5123029;27;20128;-58
2023/10/22 08:27:43;;;;;;;8.52;4.35;;;;;;;;;;5122296;27;20112;-59
2023/10/22 08:30:10;;;;;;;7.75;4.25;;;;;;;;;;5133765;27;20139;-59
2023/10/22 08:32:37;;;;;;;7.32;3.95;;;;;;;;;;5141654;27;20550;-56
2023/10/22 08:35:04;;;;;;;6.32;3.90;;;;;;;;;;5123999;27;20062;-56
2023/10/22 08:37:31;;;;;;;6.68;3.65;;;;;;;;;;5138085;27;20055;-56
2023/10/22 08:39:57;;;;;;;6.60;3.80;;;;;;;;;;5133836;27;20903;-58
2023/10/22 08:42:24;;;;;;;10.98;4.03;;;;;;;;;;5122213;27;20051;-58
2023/10/22 08:44:52;;;;;;;6.20;3.40;;;;;;;;;;5123245;27;20068;-55
2023/10/22 08:47:19;;;;;;;4.10;2.80;;;;;;;;;;5139208;27;20077;-58
2023/10/22 08:49:48;;;;;;;5.45;3.42;;;;;;;;;;5143237;27;20083;-58
2023/10/22 08:52:14;;;;;;;8.00;3.30;;;;;;;;;;5137166;27;20101;-57
2023/10/22 08:54:40;;;;;;;7.05;3.70;;;;;;;;;;5129621;27;20055;-58
2023/10/22 08:57:07;;;;;;;9.13;3.35;;;;;;;;;;5139019;27;20059;-56
2023/10/22 08:59:35;;;;;;;5.30;2.60;;;;;;;;;;5140052;27;20550;-59
2023/10/22 09:02:06;;;;;;;3.85;2.20;;;;;;;;;;5147686;27;20051;-58
2023/10/22 09:04:33;;;;;;;8.95;2.25;;;;;;;;;;5146803;27;20138;-58
2023/10/22 09:06:59;;;;;;;7.35;2.40;;;;;;;;;;5132795;27;20048;-59
2023/10/22 09:09:30;;;;;;;10.15;2.58;;;;;;;;;;5108581;27;20138;-57
2023/10/22 09:11:56;;;;;;;7.13;2.20;;;;;;;;;;5125292;27;20121;-59
2023/10/22 09:14:23;;;;;;;3.35;2.03;;;;;;;;;;5139263;27;20048;-59
2023/10/22 09:16:49;;;;;;;3.28;1.90;;;;;;;;;;5125447;27;20093;-58
2023/10/22 09:19:36;;;;;;;4.07;1.98;;;;;;;;;;5144878;27;20047;-58
2023/10/22 09:22:04;;;;;;;6.28;2.38;;;;;;;;;;5145109;27;20055;-58
2023/10/22 09:24:34;;;;;;;3.75;1.88;;;;;;;;;;5138073;27;20056;-58
2023/10/22 09:27:01;;;;;;;6.63;2.28;;;;;;;;;;5128594;27;20051;-59
2023/10/22 09:29:28;;;;;;;9.55;2.58;;;;;;;;;;5135460;27;20056;-58
2023/10/22 09:31:55;;;;;;;4.32;2.63;;;;;;;;;;5124997;27;20047;-58
2023/10/22 09:34:28;;;;;;;4.40;1.95;;;;;;;;;;5139081;27;20534;-57
2023/10/22 09:36:55;;;;;;;6.80;2.30;;;;;;;;;;5143923;27;20139;-57
2023/10/22 09:39:37;;;;;;;5.63;2.15;;;;;;;;;;5144678;27;20058;-57
2023/10/22 09:42:05;;;;;;;7.65;2.22;;;;;;;;;;5125873;27;20051;-57
2023/10/22 09:44:34;;;;;;;4.40;2.40;;;;;;;;;;5124007;27;20056;-58
2023/10/22 09:47:02;;;;;;;3.97;2.10;;;;;;;;;;5135841;27;20047;-58
2023/10/22 09:49:32;;;;;;;5.05;2.00;;;;;;;;;;5126313;27;20075;-57
2023/10/22 09:52:00;;;;;;;2.20;1.70;;;;;;;;;;5145460;27;20146;-55
2023/10/22 09:54:32;;;;;;;4.72;1.48;;;;;;;;;;5132382;27;20097;-56
2023/10/22 09:57:04;;;;;;;5.40;1.75;;;;;;;;;;5121009;27;20142;-57
2023/10/22 09:59:32;;;;;;;4.32;2.22;;;;;;;;;;5139473;27;20055;-58
2023/10/22 10:01:59;;;;;;;5.07;1.92;;;;;;;;;;5137078;27;20504;-58
2023/10/22 10:04:25;;;;;;;4.10;2.13;;;;;;;;;;5144945;27;20102;-56
2023/10/22 10:06:52;;;;;;;5.50;1.90;;;;;;;;;;5144585;27;20099;-58
2023/10/22 10:09:23;;;;;;;4.55;1.70;;;;;;;;;;5131624;27;20056;-58
2023/10/22 10:11:50;;;;;;;6.30;1.90;;;;;;;;;;5126337;27;20079;-57
2023/10/22 10:14:35;;;;;;;5.15;1.65;;;;;;;;;;5130049;27;20054;-57
2023/10/22 10:17:02;;;;;;;5.00;1.75;;;;;;;;;;5124809;27;20122;-56
2023/10/22 10:19:29;;;;;;;3.55;1.98;;;;;;;;;;5125004;27;20056;-58
2023/10/22 10:21:55;;;;;;;3.30;1.48;;;;;;;;;;5137145;27;20192;-59
2023/10/22 10:24:25;;;;;;;3.95;1.50;;;;;;;;;;5130331;27;20074;-60
2023/10/22 10:26:56;;;;;;;1.70;1.60;;;;;;;;;;5135664;27;20059;-57
2023/10/22 10:29:23;;;;;;;3.10;1.40;;;;;;;;;;5141210;27;20112;-58
2023/10/22 10:31:51;;;;;;;3.55;1.88;;;;;;;;;;5139202;27;20367;-58
2023/10/22 10:34:35;;;;;;;2.28;1.40;;;;;;;;;;5140168;27;20051;-58
2023/10/22 10:37:09;;;;;;;3.75;1.52;;;;;;;;;;5134907;27;20055;-59
2023/10/22 10:39:42;;;;;;;3.78;1.42;;;;;;;;;;5136985;27;20051;-54
2023/10/22 10:42:10;;;;;;;3.28;1.30;;;;;;;;;;5111262;27;20188;-56
2023/10/22 10:44:54;;;;;;;1.52;1.05;;;;;;;;;;5135516;27;20062;-57
2023/10/22 10:47:20;;;;;;;4.07;1.60;;;;;;;;;;5139349;27;20057;-58
2023/10/22 10:49:57;;;;;;;3.50;1.52;;;;;;;;;;5138705;27;20108;-58
2023/10/22 10:52:23;;;;;;;4.70;1.30;;;;;;;;;;5123846;27;20109;-59
2023/10/22 10:55:00;;;;;;;2.03;1.10;;;;;;;;;;5144596;27;20142;-59
2023/10/22 10:57:36;;;;;;;6.10;1.45;;;;;;;;;;5122136;27;20086;-59
2023/10/22 11:00:04;;;;;;;2.10;1.15;;;;;;;;;;5134012;27;20144;-58
2023/10/22 11:02:39;;;;;;;4.10;1.20;;;;;;;;;;5144046;27;20082;-59
2023/10/22 11:05:05;;;;;;;;;;;;;;;;;;5144381;27;20055;-57
2023/10/22 11:07:32;;;;;;;6.07;1.30;;;;;;;;;;5122971;27;44542;-59
2023/10/22 11:09:58;;;;;;;3.45;1.25;;;;;;;;;;5123682;27;20055;-57
2023/10/22 11:12:25;;;;;;;4.40;1.15;;;;;;;;;;5132372;27;20047;-59
2023/10/22 11:14:55;;;;;;;5.80;1.50;;;;;;;;;;5141656;27;20048;-59
2023/10/22 11:17:22;;;;;;;3.38;1.25;;;;;;;;;;5137138;27;20059;-58
2023/10/22 11:19:51;;;;;;;5.43;1.98;;;;;;;;;;5124646;27;20060;-58
2023/10/22 11:22:18;;;;;;;4.85;1.40;;;;;;;;;;5132317;27;20051;-58
2023/10/22 11:24:45;;;;;;;2.90;1.48;;;;;;;;;;5123145;27;20180;-60
2023/10/22 11:27:13;;;;;;;3.97;0.95;;;;;;;;;;5123759;27;20058;-57
2023/10/22 11:29:43;;;;;;;1.45;0.80;;;;;;;;;;5123412;27;20583;-59
2023/10/22 11:32:13;;;;;;;3.08;1.20;;;;;;;;;;5123021;27;20059;-59
2023/10/22 11:34:50;;;;;;;1.63;0.93;;;;;;;;;;5131036;27;20146;-56
2023/10/22 11:37:20;;;;;;;2.10;0.90;;;;;;;;;;5125204;27;20058;-58
2023/10/22 11:39:46;;;;;;;1.88;1.20;;;;;;;;;;5126029;27;20096;-58
2023/10/22 11:42:13;;;;;;;3.75;1.00;;;;;;;;;;5142842;27;20467;-58
2023/10/22 11:44:42;;;;;;;1.77;0.98;;;;;;;;;;5130447;27;20055;-59
2023/10/22 11:47:24;;;;;;;5.13;1.17;;;;;;;;;;5104304;27;20367;-58
2023/10/22 11:49:54;;;;;;;2.28;1.00;;;;;;;;;;5122106;27;20048;-57
2023/10/22 11:52:37;;;;;;;5.13;1.02;;;;;;;;;;5134536;27;20047;-57
2023/10/22 11:55:10;;;;;;;1.90;1.02;;;;;;;;;;5143085;27;20047;-57
2023/10/22 11:57:56;;;;;;;2.83;1.20;;;;;;;;;;5125442;27;20567;-58
2023/10/22 12:00:23;;;;;;;2.25;0.90;;;;;;;;;;5123123;27;20055;-59
2023/10/22 12:02:49;;;;;;;3.58;1.33;;;;;;;;;;5125795;27;20051;-58
2023/10/22 12:05:16;;;;;;;2.47;0.90;;;;;;;;;;5144242;27;20505;-56
2023/10/22 12:07:42;;;;;;;2.38;1.15;;;;;;;;;;5142295;27;20047;-59
2023/10/22 12:10:10;;;;;;;2.45;1.00;;;;;;;;;;5143678;27;20586;-59
2023/10/22 12:12:36;;;;;;;2.67;1.13;;;;;;;;;;5143027;27;20588;-57
2023/10/22 12:15:04;;;;;;;2.67;1.13;;;;;;;;;;5142029;27;20066;-58
2023/10/22 12:17:31;;;;;;;3.03;1.17;;;;;;;;;;5122768;27;20576;-60
2023/10/22 12:19:57;;;;;;;4.63;1.35;;;;;;;;;;5133751;27;20079;-59
2023/10/22 12:22:25;;;;;;;2.17;0.98;;;;;;;;;;5134847;27;20048;-58
2023/10/22 12:24:54;;;;;;;1.02;0.55;;;;;;;;;;5128408;27;20051;-59
2023/10/22 12:27:20;;;;;;;1.85;1.00;;;;;;;;;;5144174;27;20471;-57
2023/10/22 12:29:47;;;;;;;1.75;0.80;;;;;;;;;;5142569;27;20047;-58
2023/10/22 12:32:14;;;;;;;2.47;1.02;;;;;;;;;;5132684;27;20505;-58
2023/10/22 12:34:40;;;;;;;1.20;0.70;;;;;;;;;;5130760;27;20123;-59
2023/10/22 12:37:06;;;;;;;2.53;0.90;;;;;;;;;;5146605;27;20071;-61
2023/10/22 12:39:33;;;;;;;4.25;0.95;;;;;;;;;;5126288;27;20051;-59
2023/10/22 12:41:59;;;;;;;2.85;0.80;;;;;;;;;;5139844;27;20252;-60
2023/10/22 12:44:26;;;;;;;2.65;0.80;;;;;;;;;;5146057;27;20047;-57
2023/10/22 12:46:52;;;;;;;3.53;1.02;;;;;;;;;;5143992;27;20091;-59
2023/10/22 12:49:19;;;;;;;3.63;0.98;;;;;;;;;;5126429;27;20075;-57
2023/10/22 12:51:45;;;;;;;2.53;0.75;;;;;;;;;;5141364;27;20078;-58
2023/10/22 12:54:12;;;;;;;3.05;1.00;;;;;;;;;;5145780;27;20622;-59
2023/10/22 12:56:38;;;;;;;2.80;0.70;;;;;;;;;;5125367;27;20146;-58
2023/10/22 12:59:05;;;;;;;3.42;0.98;;;;;;;;;;5147238;27;20055;-60
2023/10/22 13:01:31;;;;;;;3.67;0.70;;;;;;;;;;5133033;27;20135;-59
2023/10/22 13:03:58;;;;;;;1.85;1.02;;;;;;;;;;5139799;27;20142;-59
2023/10/22 13:06:25;;;;;;;3.05;0.80;;;;;;;;;;5140565;27;20058;-60
2023/10/22 13:08:51;;;;;;;3.15;1.27;;;;;;;;;;5108051;27;20537;-59
2023/10/22 13:11:20;;;;;;;1.73;0.70;;;;;;;;;;5127887;27;20513;-57
2023/10/22 13:13:47;;;;;;;1.90;0.70;;;;;;;;;;5130376;27;20051;-59
2023/10/22 13:16:14;;;;;;;4.53;1.20;;;;;;;;;;5118587;27;20494;-60
2023/10/22 13:18:42;;;;;;;1.95;0.75;;;;;;;;;;5127443;27;20087;-59
2023/10/22 13:21:09;;;;;;;2.88;0.90;;;;;;;;;;5145744;27;20528;-60
2023/10/22 13:23:35;;;;;;;1.83;0.75;;;;;;;;;;5146229;27;20641;-60
2023/10/22 13:26:02;;;;;;;2.70;0.90;;;;;;;;;;5135274;27;20058;-59
2023/10/22 13:28:28;;;;;;;2.20;0.93;;;;;;;;;;5135413;27;20048;-58
2023/10/22 13:30:54;;;;;;;2.10;1.00;;;;;;;;;;5142549;27;20474;-59
2023/10/22 13:33:21;;;;;;;1.08;0.63;;;;;;;;;;5131010;27;20141;-61
2023/10/22 13:35:47;;;;;;;3.78;0.98;;;;;;;;;;5132797;27;20058;-60
2023/10/22 13:38:14;;;;;;;2.63;0.80;;;;;;;;;;5129152;27;20079;-59
2023/10/22 13:40:40;;;;;;;2.17;1.15;;;;;;;;;;5130984;27;20189;-58
2023/10/22 13:43:07;;;;;;;1.80;0.98;;;;;;;;;;5106528;27;20063;-59
2023/10/22 13:45:34;;;;;;;0.63;0.50;;;;;;;;;;5138931;27;20055;-60
2023/10/22 13:48:01;;;;;;;1.95;0.68;;;;;;;;;;5136596;27;20067;-60
2023/10/22 13:50:28;;;;;;;1.23;0.57;;;;;;;;;;5124928;27;20582;-60
2023/10/22 13:52:54;;;;;;;1.63;0.65;;;;;;;;;;5125572;27;20281;-57
2023/10/22 13:55:20;;;;;;;3.70;1.05;;;;;;;;;;5126216;27;20851;-60
2023/10/22 13:57:47;;;;;;;1.35;0.70;;;;;;;;;;5145250;27;20135;-59
2023/10/22 14:00:14;;;;;;;1.25;0.60;;;;;;;;;;5144642;27;20111;-58
2023/10/22 14:02:40;;;;;;;2.50;0.70;;;;;;;;;;5144167;27;20747;-60
2023/10/22 14:05:09;;;;;;;1.70;0.75;;;;;;;;;;5144436;27;20054;-58
2023/10/22 14:07:37;;;;;;;2.38;0.90;;;;;;;;;;5131931;27;20099;-60
2023/10/22 14:10:04;;;;;;;2.97;0.70;;;;;;;;;;5130971;27;20121;-59
2023/10/22 14:12:31;;;;;;;1.08;0.60;;;;;;;;;;5124672;27;20097;-59
2023/10/22 14:14:57;;;;;;;2.28;1.00;;;;;;;;;;5145197;27;20158;-59
2023/10/22 14:17:23;;;;;;;4.93;1.17;;;;;;;;;;5129911;27;20054;-59
2023/10/22 14:19:53;;;;;;;2.45;0.70;;;;;;;;;;5128638;27;20055;-56
2023/10/22 14:22:20;;;;;;;4.28;0.80;;;;;;;;;;5141310;27;20351;-58
2023/10/22 14:24:54;;;;;;;5.10;1.05;;;;;;;;;;5145054;27;20059;-59
2023/10/22 14:27:24;;;;;;;3.83;0.70;;;;;;;;;;5137735;27;20139;-56
2023/10/22 14:29:51;;;;;;;5.68;0.95;;;;;;;;;;5131117;27;20619;-58
2023/10/22 14:32:17;;;;;;;3.15;1.13;;;;;;;;;;5144252;27;20055;-59
2023/10/22 14:34:44;;;;;;;3.42;1.02;;;;;;;;;;5143874;27;20120;-57
2023/10/22 14:37:11;;;;;;;1.92;0.95;;;;;;;;;;5134587;27;20529;-59
2023/10/22 14:39:38;;;;;;;2.63;0.80;;;;;;;;;;5123858;27;20056;-60
2023/10/22 14:42:05;;;;;;;1.70;0.90;;;;;;;;;;5135380;27;20104;-59
2023/10/22 14:44:32;;;;;;;4.35;0.95;;;;;;;;;;5139023;27;20055;-60
2023/10/22 14:46:58;;;;;;;3.40;1.00;;;;;;;;;;5135197;27;20162;-59